Time;durP1;ratioP1;P1;durP2;ratioP2;P2;SDS_P1;SDS_P2;PMS_P1;PMS_P2;Temp;Humidity;BMP_temperature;BMP_pressure;BME280_temperature;BME280_humidity;BME280_pressure;Samples;Min_cycle;Max_cycle;Signal;HPM_P1;HPM_P2
2023/02/16 00:01:41;;;;;;;11.50;8.07;;;2.40;64.90;;;;;;5065776;28;20214;-70
2023/02/16 00:04:19;;;;;;;10.70;8.18;;;2.40;64.30;;;;;;5054254;28;20194;-71
2023/02/16 00:06:47;;;;;;;10.00;6.30;;;2.30;64.50;;;;;;5061795;28;20197;-71
2023/02/16 00:09:15;;;;;;;9.82;6.55;;;2.20;65.00;;;;;;5074528;28;20203;-70
2023/02/16 00:14:29;;;;;;;11.40;6.43;;;2.10;66.80;;;;;;5054626;28;20295;-71
2023/02/16 00:16:58;;;;;;;15.85;7.22;;;2.10;68.30;;;;;;5062290;28;20197;-71
2023/02/16 00:19:27;;;;;;;18.70;8.57;;;2.00;69.10;;;;;;5073964;28;20197;-70
2023/02/16 00:21:58;;;;;;;11.10;7.20;;;2.00;70.10;;;;;;5062891;28;20218;-71
2023/02/16 00:24:29;;;;;;;13.40;10.07;;;2.10;70.30;;;;;;5054106;28;20197;-71
2023/02/16 00:27:00;;;;;;;9.20;7.43;;;2.10;70.10;;;;;;5064890;28;20225;-71
2023/02/16 00:29:31;;;;;;;11.65;7.50;;;2.10;70.30;;;;;;5073846;28;20178;-71
2023/02/16 00:32:00;;;;;;;11.27;8.18;;;2.20;70.60;;;;;;5065667;28;20185;-70
2023/02/16 00:34:34;;;;;;;10.30;8.52;;;2.30;69.50;;;;;;5053535;28;20216;-71
2023/02/16 00:37:05;;;;;;;11.20;7.40;;;2.20;69.10;;;;;;5053676;28;20193;-72
2023/02/16 00:39:35;;;;;;;11.20;7.63;;;2.10;69.50;;;;;;5063049;28;20185;-71
2023/02/16 00:42:05;;;;;;;13.75;8.90;;;2.10;70.10;;;;;;5073426;28;20194;-71
2023/02/16 00:44:37;;;;;;;13.95;7.30;;;2.10;70.50;;;;;;5063614;28;20182;-70
2023/02/16 00:47:14;;;;;;;10.00;6.18;;;2.00;71.60;;;;;;5053551;28;20194;-72
2023/02/16 00:49:42;;;;;;;7.97;5.82;;;1.80;72.20;;;;;;5063455;28;20242;-71
2023/02/16 00:52:29;;;;;;;11.77;4.88;;;1.70;74.00;;;;;;5072923;28;20210;-71
2023/02/16 00:55:00;;;;;;;8.73;5.00;;;1.70;74.60;;;;;;5061110;28;20633;-71
2023/02/16 00:57:30;;;;;;;12.10;5.40;;;1.80;75.00;;;;;;5053659;28;20189;-70
2023/02/16 01:00:03;;;;;;;8.90;5.10;;;1.90;75.40;;;;;;5064608;28;20239;-70
2023/02/16 01:02:30;;;;;;;7.45;4.60;;;2.00;75.60;;;;;;5072815;28;20224;-71
2023/02/16 01:04:58;;;;;;;8.43;5.88;;;2.00;75.40;;;;;;5061752;28;20280;-70
2023/02/16 01:12:56;;;;;;;11.50;5.22;;;2.20;74.60;;;;;;5053999;28;20331;-70
2023/02/16 01:15:26;;;;;;;10.25;6.20;;;2.20;74.10;;;;;;5066068;28;20206;-71
2023/02/16 01:17:53;;;;;;;6.35;5.32;;;2.20;72.30;;;;;;5073122;28;20196;-72
2023/02/16 01:20:23;;;;;;;9.40;5.38;;;2.20;70.00;;;;;;5060047;28;20190;-71
2023/02/16 01:22:50;;;;;;;8.85;5.55;;;2.10;69.80;;;;;;5052265;28;20189;-70
2023/02/16 01:25:18;;;;;;;9.57;5.50;;;2.10;70.00;;;;;;5064146;28;20242;-71
2023/02/16 01:27:46;;;;;;;7.85;5.18;;;2.10;69.80;;;;;;5072669;28;20198;-71
2023/02/16 01:30:16;;;;;;;8.20;5.28;;;2.10;70.10;;;;;;5071114;28;20250;-72
2023/02/16 01:32:50;;;;;;;8.38;4.97;;;2.10;70.60;;;;;;5072043;28;20579;-71
2023/02/16 01:35:18;;;;;;;8.38;5.00;;;2.10;71.00;;;;;;5061672;28;20196;-70
2023/02/16 01:37:46;;;;;;;9.10;5.63;;;2.10;71.00;;;;;;5052697;28;20285;-70
2023/02/16 01:40:22;;;;;;;6.70;4.70;;;2.00;70.50;;;;;;5061738;28;20186;-71
2023/02/16 01:42:54;;;;;;;10.60;5.43;;;2.00;70.30;;;;;;5054750;28;20548;-71
2023/02/16 01:45:33;;;;;;;8.23;4.90;;;2.00;70.30;;;;;;5061715;28;20197;-71
2023/02/16 01:48:04;;;;;;;11.70;5.65;;;1.90;70.60;;;;;;5068067;28;20212;-70
2023/02/16 01:50:43;;;;;;;7.75;4.93;;;1.90;70.20;;;;;;5052592;28;20201;-71
2023/02/16 01:53:19;;;;;;;11.23;5.82;;;1.90;70.00;;;;;;5071110;28;20294;-71
2023/02/16 01:55:50;;;;;;;8.27;5.82;;;1.80;69.50;;;;;;5059548;28;20197;-71
2023/02/16 01:58:29;;;;;;;10.75;5.60;;;1.80;69.00;;;;;;5052235;28;20201;-71
2023/02/16 02:01:43;;;;;;;10.05;6.63;;;1.70;67.70;;;;;;5063666;28;20229;-71
2023/02/16 02:07:20;;;;;;;6.80;5.20;;;1.70;67.50;;;;;;5032445;28;20553;-70
2023/02/16 02:09:55;;;;;;;9.77;5.43;;;1.70;67.30;;;;;;5032341;28;20200;-70
2023/02/16 02:12:32;;;;;;;10.40;5.32;;;1.60;67.40;;;;;;5055982;28;20196;-70
2023/02/16 02:14:59;;;;;;;8.45;5.35;;;1.60;67.90;;;;;;5072273;28;20227;-71
2023/02/16 02:17:27;;;;;;;10.38;6.05;;;1.60;67.90;;;;;;5059654;28;20202;-71
2023/02/16 02:20:05;;;;;;;9.35;4.93;;;1.50;68.00;;;;;;5051700;28;20651;-71
2023/02/16 02:26:22;;;;;;;8.75;4.63;;;1.50;68.50;;;;;;5070165;28;20227;-71
2023/02/16 02:29:02;;;;;;;9.75;5.07;;;1.40;68.60;;;;;;5071761;28;20196;-70
2023/02/16 02:31:43;;;;;;;13.77;5.75;;;1.40;69.00;;;;;;5064411;28;20206;-70
2023/02/16 02:34:26;;;;;;;7.15;4.68;;;1.40;68.50;;;;;;5070641;28;20308;-70
2023/02/16 02:37:10;;;;;;;5.88;3.85;;;1.40;67.90;;;;;;5052442;28;20578;-71
2023/02/16 02:39:55;;;;;;;8.77;4.75;;;1.30;68.10;;;;;;5051882;28;20645;-72
2023/02/16 02:42:30;;;;;;;6.60;4.50;;;1.30;68.40;;;;;;5037197;28;20277;-73
2023/02/16 02:45:07;;;;;;;7.97;4.35;;;1.30;68.80;;;;;;5052501;28;20201;-71
2023/02/16 02:47:38;;;;;;;6.68;3.65;;;1.30;69.60;;;;;;5071633;28;20192;-71
2023/02/16 02:51:27;;;;;;;5.95;4.20;;;1.30;70.00;;;;;;5068188;28;20200;-71
2023/02/16 02:53:40;;;;;;;6.93;4.10;;;1.20;70.90;;;;;;5051433;28;20223;-71
2023/02/16 03:01:49;;;;;;;7.63;3.97;;;1.20;70.90;;;;;;5054538;28;20232;-71
2023/02/16 03:04:27;;;;;;;7.25;4.38;;;1.20;71.20;;;;;;5051381;28;20193;-72
2023/02/16 03:06:56;;;;;;;11.30;5.18;;;1.20;70.90;;;;;;5067842;28;20317;-70
2023/02/16 03:09:25;;;;;;;8.93;4.53;;;1.20;70.70;;;;;;5062023;28;20200;-71
2023/02/16 03:14:44;;;;;;;6.07;4.35;;;1.10;69.00;;;;;;5060936;28;20305;-70
2023/02/16 03:31:20;;;;;;;4.65;2.70;;;1.10;74.50;;;;;;5042372;28;20280;-71
2023/02/16 03:33:53;;;;;;;5.55;3.08;;;1.10;75.00;;;;;;5051067;28;20220;-70
2023/02/16 03:36:21;;;;;;;7.57;3.10;;;1.10;74.70;;;;;;5070913;28;20275;-71
2023/02/16 03:38:49;;;;;;;5.35;2.35;;;1.20;75.20;;;;;;5070447;28;20197;-71
2023/02/16 03:41:17;;;;;;;5.75;2.80;;;1.20;75.00;;;;;;5042741;28;20250;-70
2023/02/16 03:43:44;;;;;;;8.68;3.80;;;1.30;74.40;;;;;;5051196;28;20198;-71
2023/02/16 03:46:12;;;;;;;6.55;3.25;;;1.30;73.60;;;;;;5071376;28;20642;-71
2023/02/16 03:48:42;;;;;;;5.53;3.90;;;1.30;72.70;;;;;;5074874;28;20207;-71
2023/02/16 03:51:11;;;;;;;5.30;3.22;;;1.40;72.40;;;;;;5055969;28;20498;-70
2023/02/16 03:53:38;;;;;;;6.32;3.15;;;1.30;71.70;;;;;;5054537;28;20212;-70
2023/02/16 03:56:06;;;;;;;4.28;2.75;;;1.30;71.60;;;;;;5055577;28;20188;-71
2023/02/16 03:58:33;;;;;;;6.30;3.05;;;1.30;70.60;;;;;;5060434;28;20191;-71
2023/02/16 04:01:01;;;;;;;6.63;3.13;;;1.20;69.50;;;;;;5074673;28;20231;-71
2023/02/16 04:03:28;;;;;;;4.95;2.70;;;1.20;69.40;;;;;;5068818;28;20674;-71
2023/02/16 04:05:56;;;;;;;8.45;3.28;;;1.10;68.70;;;;;;5054208;28;20189;-70
2023/02/16 04:08:25;;;;;;;8.75;4.00;;;1.00;67.70;;;;;;5057312;28;20208;-71
2023/02/16 04:10:53;;;;;;;6.75;3.55;;;1.00;66.10;;;;;;5074244;28;20199;-72
2023/02/16 04:13:19;;;;;;;5.63;3.50;;;0.90;64.50;;;;;;5071045;28;20191;-71
2023/02/16 04:15:46;;;;;;;6.25;3.90;;;0.80;64.40;;;;;;5054053;28;20190;-71
2023/02/16 04:18:14;;;;;;;8.15;3.20;;;0.70;65.10;;;;;;5055213;28;20196;-71
2023/02/16 04:20:41;;;;;;;6.32;2.85;;;0.70;66.60;;;;;;5074015;28;20207;-71
2023/02/16 04:23:11;;;;;;;6.15;3.53;;;0.60;67.00;;;;;;5073683;28;20195;-72
2023/02/16 04:25:44;;;;;;;8.20;3.60;;;0.60;66.30;;;;;;5053795;28;20194;-71
2023/02/16 04:28:12;;;;;;;6.00;3.97;;;0.50;65.80;;;;;;5057114;28;20271;-73
2023/02/16 04:30:44;;;;;;;7.05;5.10;;;0.50;66.60;;;;;;5073493;28;20707;-71
2023/02/16 04:33:12;;;;;;;11.90;4.07;;;0.50;68.10;;;;;;5070422;28;20184;-70
2023/02/16 04:35:42;;;;;;;6.97;3.90;;;0.50;68.30;;;;;;5053581;28;20270;-70
2023/02/16 04:38:09;;;;;;;5.70;4.40;;;0.40;68.40;;;;;;5054001;28;20591;-71
2023/02/16 04:40:39;;;;;;;11.95;4.10;;;0.40;68.80;;;;;;5053674;28;20194;-71
2023/02/16 04:43:07;;;;;;;5.68;3.75;;;0.30;68.40;;;;;;5054197;28;20596;-71
2023/02/16 04:45:35;;;;;;;6.40;4.38;;;0.30;70.20;;;;;;5073279;28;20190;-70
2023/02/16 04:48:02;;;;;;;9.65;4.43;;;0.30;71.30;;;;;;5073368;28;20186;-71
2023/02/16 04:50:35;;;;;;;8.60;3.97;;;0.30;71.60;;;;;;5073194;28;20197;-71
2023/02/16 04:53:05;;;;;;;6.82;4.40;;;0.40;72.20;;;;;;5073660;28;20179;-70
2023/02/16 04:55:32;;;;;;;5.63;3.33;;;0.40;72.70;;;;;;5072545;28;20209;-72
2023/02/16 04:57:59;;;;;;;5.57;3.40;;;0.50;72.40;;;;;;5072495;28;20198;-71
2023/02/16 05:00:29;;;;;;;5.60;3.70;;;0.50;72.30;;;;;;5054256;28;20188;-70
2023/02/16 05:02:57;;;;;;;8.57;4.45;;;0.60;72.20;;;;;;5053360;28;20241;-69
2023/02/16 05:05:24;;;;;;;7.78;4.22;;;0.60;71.90;;;;;;5069227;28;20225;-72
2023/02/16 05:07:54;;;;;;;7.85;4.32;;;0.60;72.00;;;;;;5060717;28;20183;-70
2023/02/16 05:10:21;;;;;;;9.35;4.95;;;0.60;71.40;;;;;;5053121;28;20196;-70
2023/02/16 05:15:36;;;;;;;5.72;4.03;;;0.70;71.40;;;;;;5061249;28;20348;-71
2023/02/16 05:18:03;;;;;;;7.47;4.90;;;0.80;71.40;;;;;;5065435;28;20692;-71
2023/02/16 05:23:16;;;;;;;9.90;5.70;;;0.80;71.50;;;;;;5060124;28;20269;-71
2023/02/16 05:25:55;;;;;;;9.45;5.70;;;0.90;71.60;;;;;;5063081;28;20189;-70
2023/02/16 05:28:22;;;;;;;11.82;6.10;;;0.90;71.50;;;;;;5063211;28;20203;-70
2023/02/16 05:30:51;;;;;;;10.32;6.25;;;0.90;70.70;;;;;;5053719;28;20193;-70
2023/02/16 05:33:18;;;;;;;16.23;7.07;;;0.80;70.40;;;;;;5052658;28;20192;-71
2023/02/16 05:35:45;;;;;;;10.40;5.82;;;0.90;69.90;;;;;;5071834;28;20227;-71
2023/02/16 05:38:12;;;;;;;8.77;6.38;;;0.90;70.20;;;;;;5072563;28;20195;-71
2023/02/16 05:40:44;;;;;;;9.07;5.40;;;0.90;70.50;;;;;;5053171;28;20270;-71
2023/02/16 05:43:11;;;;;;;5.28;3.25;;;0.90;70.70;;;;;;5052970;28;20223;-70
2023/02/16 05:45:39;;;;;;;6.65;3.58;;;0.90;71.00;;;;;;5060875;28;20631;-70
2023/02/16 05:48:08;;;;;;;5.82;3.42;;;0.80;71.70;;;;;;5052905;28;20196;-70
2023/02/16 05:50:35;;;;;;;8.32;4.50;;;0.80;72.30;;;;;;5069638;28;20240;-71
2023/02/16 05:53:05;;;;;;;6.40;2.70;;;0.90;72.50;;;;;;5072803;28;20190;-71
2023/02/16 05:55:33;;;;;;;7.10;3.15;;;0.90;71.90;;;;;;5055518;28;20208;-71
2023/02/16 05:58:00;;;;;;;5.03;3.08;;;0.90;71.80;;;;;;5052752;28;20551;-70
2023/02/16 06:00:32;;;;;;;6.07;2.75;;;0.90;71.60;;;;;;5065559;28;20193;-70
2023/02/16 06:02:59;;;;;;;8.30;3.42;;;0.90;71.90;;;;;;5070100;28;20192;-71
2023/02/16 06:05:28;;;;;;;6.30;3.45;;;0.90;71.50;;;;;;5072376;28;20278;-71
2023/02/16 06:07:57;;;;;;;3.90;3.50;;;0.90;71.90;;;;;;5060439;28;20552;-71
2023/02/16 06:10:25;;;;;;;6.55;3.70;;;1.00;71.70;;;;;;5053064;28;20184;-71
2023/02/16 06:12:53;;;;;;;4.22;3.10;;;1.00;71.70;;;;;;5062758;28;20222;-71
2023/02/16 06:15:20;;;;;;;4.40;3.20;;;1.10;71.50;;;;;;5072122;28;20310;-71
2023/02/16 06:17:48;;;;;;;5.18;3.05;;;1.10;71.60;;;;;;5062389;28;20196;-71
2023/02/16 06:20:15;;;;;;;10.40;2.65;;;1.10;71.70;;;;;;5064562;28;20673;-71
2023/02/16 06:22:44;;;;;;;4.30;2.45;;;1.20;72.00;;;;;;5063635;28;20224;-71
2023/02/16 06:25:11;;;;;;;3.97;2.78;;;1.20;72.00;;;;;;5052292;28;20201;-72
2023/02/16 06:27:39;;;;;;;6.50;2.53;;;1.30;72.00;;;;;;5058918;28;20215;-71
2023/02/16 06:30:08;;;;;;;2.85;2.30;;;1.30;71.80;;;;;;5060926;28;20184;-74
2023/02/16 06:32:35;;;;;;;5.95;3.67;;;1.30;71.80;;;;;;5057990;28;20216;-72
2023/02/16 06:35:07;;;;;;;9.05;4.53;;;1.40;71.90;;;;;;5071985;28;20222;-72
2023/02/16 06:37:36;;;;;;;8.07;4.35;;;1.40;70.90;;;;;;5065914;28;20189;-69
2023/02/16 06:40:06;;;;;;;7.45;3.85;;;1.50;70.50;;;;;;5053160;28;20192;-71
2023/02/16 06:42:38;;;;;;;6.25;3.70;;;1.60;70.30;;;;;;5046988;28;20192;-73
2023/02/16 06:45:13;;;;;;;6.75;4.32;;;1.50;70.10;;;;;;5046912;28;20202;-70
2023/02/16 06:47:41;;;;;;;7.10;5.50;;;1.70;70.20;;;;;;5047007;28;20185;-70
2023/02/16 06:50:09;;;;;;;6.28;4.68;;;1.70;70.00;;;;;;5049436;28;20617;-71
2023/02/16 06:52:37;;;;;;;9.32;3.47;;;1.70;70.90;;;;;;5050181;28;20198;-70
2023/02/16 06:55:06;;;;;;;4.40;3.97;;;1.70;70.80;;;;;;5050284;28;20233;-69
2023/02/16 06:57:34;;;;;;;6.78;4.15;;;1.80;71.10;;;;;;5050316;28;20625;-70
2023/02/16 07:00:01;;;;;;;5.85;3.85;;;2.00;71.60;;;;;;5046637;28;20208;-70
2023/02/16 07:02:28;;;;;;;5.05;3.10;;;2.20;71.90;;;;;;5048221;28;20229;-70
2023/02/16 07:04:55;;;;;;;5.07;2.80;;;2.40;72.00;;;;;;5049107;28;20192;-70
2023/02/16 07:07:24;;;;;;;5.68;3.40;;;2.60;71.60;;;;;;5047951;28;20205;-70
2023/02/16 07:09:52;;;;;;;5.80;3.25;;;2.90;71.00;;;;;;5048758;28;20259;-70
2023/02/16 07:12:21;;;;;;;6.10;2.95;;;3.10;70.00;;;;;;5049165;28;20194;-71
2023/02/16 07:14:54;;;;;;;5.55;3.45;;;3.20;69.50;;;;;;5048835;28;20226;-71
2023/02/16 07:17:21;;;;;;;4.20;2.67;;;3.40;69.00;;;;;;5049214;28;20281;-70
2023/02/16 07:19:48;;;;;;;6.82;2.70;;;3.40;68.00;;;;;;5049295;28;20248;-69
2023/02/16 07:22:16;;;;;;;5.15;2.72;;;3.50;67.90;;;;;;5051330;28;20524;-71
2023/02/16 07:24:43;;;;;;;6.63;3.15;;;3.50;67.50;;;;;;5052721;28;20248;-70
2023/02/16 07:27:10;;;;;;;5.45;3.13;;;3.60;67.70;;;;;;5053356;28;20256;-71
2023/02/16 07:29:39;;;;;;;4.97;2.70;;;3.70;67.30;;;;;;5052884;28;20190;-72
2023/02/16 07:32:06;;;;;;;4.30;2.45;;;3.90;66.70;;;;;;5053418;28;20225;-71
2023/02/16 07:34:33;;;;;;;6.70;3.35;;;3.90;67.00;;;;;;5053290;28;20190;-72
2023/02/16 07:37:00;;;;;;;6.68;3.95;;;4.10;66.70;;;;;;5053079;28;20197;-71
2023/02/16 07:39:29;;;;;;;6.65;3.10;;;4.40;66.50;;;;;;5053359;28;20289;-70
2023/02/16 07:41:56;;;;;;;4.47;2.47;;;4.70;65.90;;;;;;5053273;28;20195;-72
2023/02/16 07:44:23;;;;;;;7.75;4.25;;;5.00;65.30;;;;;;5053075;28;20209;-72
2023/02/16 07:46:52;;;;;;;6.13;3.42;;;5.20;63.70;;;;;;5053256;28;20202;-71
2023/02/16 07:49:19;;;;;;;4.75;3.50;;;5.20;62.30;;;;;;5050103;28;20269;-70
2023/02/16 07:51:46;;;;;;;4.22;3.58;;;5.20;62.00;;;;;;5057332;28;20582;-71
2023/02/16 07:54:13;;;;;;;7.60;3.90;;;5.20;61.70;;;;;;5056833;28;20269;-71
2023/02/16 07:56:40;;;;;;;5.28;3.50;;;5.20;62.00;;;;;;5055196;28;20309;-70
2023/02/16 07:59:07;;;;;;;4.30;3.15;;;5.20;62.60;;;;;;5055278;28;20227;-70
2023/02/16 08:01:34;;;;;;;6.72;5.70;;;5.20;62.50;;;;;;5054342;28;20226;-72
2023/02/16 08:04:03;;;;;;;14.25;7.80;;;5.30;62.60;;;;;;5054990;28;20240;-72
2023/02/16 08:06:31;;;;;;;15.50;8.23;;;5.30;62.50;;;;;;5055326;28;20560;-71
2023/02/16 08:08:58;;;;;;;10.38;8.00;;;5.40;62.60;;;;;;5055205;28;20217;-71
2023/02/16 08:11:26;;;;;;;13.65;9.80;;;5.50;62.70;;;;;;5054707;28;20240;-72
2023/02/16 08:13:53;;;;;;;16.83;10.63;;;5.70;62.80;;;;;;5054856;28;20195;-71
2023/02/16 08:16:23;;;;;;;10.23;8.38;;;5.90;62.40;;;;;;5054294;28;20280;-71
2023/02/16 08:18:51;;;;;;;15.00;10.13;;;6.10;62.00;;;;;;5055005;28;20194;-71
2023/02/16 08:21:20;;;;;;;12.60;8.65;;;6.20;61.00;;;;;;5054926;28;20190;-71
2023/02/16 08:23:52;;;;;;;12.68;7.15;;;6.40;59.70;;;;;;5054899;28;20222;-71
2023/02/16 08:26:23;;;;;;;20.63;10.13;;;6.70;59.40;;;;;;5054666;28;20539;-73
2023/02/16 08:28:51;;;;;;;12.63;7.72;;;6.90;58.80;;;;;;5054969;28;20195;-71
2023/02/16 08:31:23;;;;;;;9.65;6.80;;;7.10;58.30;;;;;;5054095;28;20653;-71
2023/02/16 08:33:52;;;;;;;9.40;5.75;;;7.40;58.50;;;;;;5054863;28;20197;-70
2023/02/16 08:36:23;;;;;;;6.05;4.63;;;7.90;58.90;;;;;;5054512;28;20309;-71
2023/02/16 08:38:51;;;;;;;8.65;4.75;;;8.30;57.70;;;;;;5054555;28;20226;-71
2023/02/16 08:41:18;;;;;;;8.45;6.05;;;8.50;55.90;;;;;;5053954;28;20281;-70
2023/02/16 08:43:51;;;;;;;9.98;5.82;;;8.70;55.60;;;;;;5054321;28;20286;-71
2023/02/16 08:46:18;;;;;;;14.77;8.88;;;8.80;55.00;;;;;;5053989;28;20229;-71
2023/02/16 08:48:46;;;;;;;10.80;7.10;;;8.90;55.10;;;;;;5054004;28;20194;-70
2023/02/16 08:51:16;;;;;;;9.93;7.07;;;9.00;55.30;;;;;;5054252;28;20584;-71
2023/02/16 08:53:45;;;;;;;11.23;7.50;;;9.30;55.20;;;;;;5054190;28;20221;-71
2023/02/16 08:56:13;;;;;;;9.13;7.35;;;9.80;54.60;;;;;;5054224;28;20250;-71
2023/02/16 08:58:40;;;;;;;11.68;7.80;;;10.30;52.80;;;;;;5054154;28;20222;-71
2023/02/16 09:01:08;;;;;;;11.80;7.90;;;10.90;52.40;;;;;;5053629;28;20269;-71
2023/02/16 09:03:36;;;;;;;10.30;7.55;;;11.40;51.10;;;;;;5054048;28;20222;-70
2023/02/16 09:06:05;;;;;;;13.13;7.82;;;11.80;50.00;;;;;;5054143;28;20198;-71
2023/02/16 09:08:33;;;;;;;11.30;8.77;;;12.40;49.60;;;;;;5054189;28;20195;-71
2023/02/16 09:11:03;;;;;;;10.80;7.28;;;13.00;48.10;;;;;;5054225;28;20194;-70
2023/02/16 09:13:30;;;;;;;11.70;8.40;;;13.50;47.10;;;;;;5054028;28;20221;-71
2023/02/16 09:16:02;;;;;;;12.20;7.40;;;14.20;47.50;;;;;;5053718;28;20317;-71
2023/02/16 09:18:32;;;;;;;9.43;7.78;;;15.00;43.80;;;;;;5054220;28;20632;-71
2023/02/16 09:21:05;;;;;;;11.80;6.50;;;15.60;42.20;;;;;;5053754;28;20210;-71
2023/02/16 09:23:35;;;;;;;7.57;5.73;;;16.40;41.50;;;;;;5053677;28;20437;-72
2023/02/16 09:26:06;;;;;;;9.80;6.27;;;17.20;39.80;;;;;;5053571;28;20527;-71
2023/02/16 09:28:33;;;;;;;8.03;5.67;;;17.90;38.10;;;;;;5053142;28;20491;-73
2023/02/16 09:31:01;;;;;;;9.90;6.40;;;18.60;37.30;;;;;;5053452;28;20468;-71
2023/02/16 09:33:28;;;;;;;8.13;5.90;;;19.20;35.80;;;;;;5053061;28;20494;-72
2023/02/16 09:35:55;;;;;;;11.67;6.80;;;19.60;34.60;;;;;;5053478;28;20480;-71
2023/02/16 09:38:22;;;;;;;8.07;5.50;;;20.10;35.00;;;;;;5053405;28;20523;-71
2023/02/16 09:40:49;;;;;;;10.97;6.43;;;20.40;34.50;;;;;;5053455;28;20954;-71
2023/02/16 09:43:30;;;;;;;10.17;6.83;;;20.40;33.00;;;;;;5052761;28;20534;-71
2023/02/16 09:45:58;;;;;;;15.37;7.83;;;20.30;33.60;;;;;;5053429;28;20856;-70
2023/02/16 09:48:35;;;;;;;12.10;8.00;;;20.00;33.70;;;;;;5053342;28;20790;-70
2023/02/16 09:51:04;;;;;;;10.67;7.57;;;19.80;34.50;;;;;;5053045;28;20452;-71
2023/02/16 09:53:36;;;;;;;10.77;7.70;;;19.80;34.60;;;;;;5053066;28;20436;-70
2023/02/16 09:56:15;;;;;;;10.27;7.30;;;19.90;34.70;;;;;;5053167;28;20572;-71
2023/02/16 09:58:49;;;;;;;8.80;6.53;;;20.40;34.40;;;;;;5052974;28;20436;-72
2023/02/16 10:01:26;;;;;;;9.73;6.77;;;21.20;33.50;;;;;;5052648;28;20511;-71
2023/02/16 10:04:00;;;;;;;6.70;5.33;;;21.80;31.60;;;;;;5052691;28;20445;-71
2023/02/16 10:06:36;;;;;;;9.43;6.73;;;22.40;30.60;;;;;;5053169;28;20436;-71
2023/02/16 10:09:07;;;;;;;9.37;5.60;;;22.60;28.90;;;;;;5052893;28;20483;-71
2023/02/16 10:11:40;;;;;;;10.77;4.83;;;22.90;27.90;;;;;;5052520;28;20480;-71
2023/02/16 10:14:18;;;;;;;9.70;5.77;;;23.30;25.90;;;;;;5052898;28;20442;-72
2023/02/16 10:16:51;;;;;;;7.90;5.93;;;23.60;25.10;;;;;;5052587;28;20571;-72
2023/02/16 10:19:22;;;;;;;9.57;5.70;;;23.60;24.10;;;;;;5052842;28;20519;-71
2023/02/16 10:21:53;;;;;;;8.80;5.30;;;23.50;24.10;;;;;;5052560;28;20436;-71
2023/02/16 10:24:20;;;;;;;11.30;6.53;;;23.70;24.20;;;;;;5052814;28;20433;-70
2023/02/16 10:26:56;;;;;;;10.30;6.80;;;24.00;24.50;;;;;;5052337;28;20536;-71
2023/02/16 10:29:26;;;;;;;12.30;6.50;;;24.20;23.80;;;;;;5052211;28;20844;-71
2023/02/16 10:32:07;;;;;;;8.00;5.47;;;24.40;23.20;;;;;;5052392;28;20873;-71
2023/02/16 10:34:47;;;;;;;10.67;5.67;;;24.60;23.00;;;;;;5052434;28;20459;-71
2023/02/16 10:37:40;;;;;;;7.10;5.80;;;24.80;22.70;;;;;;5052293;28;20899;-71
2023/02/16 10:40:29;;;;;;;8.57;6.07;;;24.90;22.40;;;;;;5052415;28;20475;-71
2023/02/16 10:43:04;;;;;;;10.63;6.93;;;25.00;21.80;;;;;;5052200;28;20425;-71
2023/02/16 10:45:39;;;;;;;10.60;5.60;;;24.90;21.90;;;;;;5052281;28;20436;-71
2023/02/16 10:48:07;;;;;;;10.93;6.47;;;24.90;21.90;;;;;;5052371;28;20476;-71
2023/02/16 10:50:40;;;;;;;9.70;5.90;;;24.80;21.40;;;;;;5052304;28;20819;-73
2023/02/16 10:53:13;;;;;;;8.13;6.17;;;24.70;21.00;;;;;;5052456;28;20838;-71
2023/02/16 10:55:40;;;;;;;8.43;5.50;;;24.70;21.60;;;;;;5052964;28;20537;-71
2023/02/16 10:58:17;;;;;;;12.30;6.60;;;25.00;21.80;;;;;;5056329;28;20486;-71
2023/02/16 11:00:54;;;;;;;11.50;6.20;;;25.40;21.40;;;;;;5056030;28;20500;-71
2023/02/16 11:03:25;;;;;;;9.97;6.13;;;25.60;20.50;;;;;;5056068;28;20472;-71
2023/02/16 11:05:53;;;;;;;14.40;5.93;;;25.60;20.50;;;;;;5056358;28;20919;-70
2023/02/16 11:08:20;;;;;;;10.03;6.30;;;25.30;20.00;;;;;;5056417;28;20484;-71
2023/02/16 11:10:49;;;;;;;9.80;5.73;;;25.20;20.30;;;;;;5056093;28;20510;-71
2023/02/16 11:13:30;;;;;;;9.30;6.27;;;25.40;20.40;;;;;;5056236;28;20440;-71
2023/02/16 11:16:03;;;;;;;9.10;5.63;;;25.70;20.00;;;;;;5056097;28;20480;-71
2023/02/16 11:18:38;;;;;;;9.77;6.10;;;26.10;20.00;;;;;;5056063;28;20494;-71
2023/02/16 11:21:06;;;;;;;9.77;5.90;;;26.50;20.20;;;;;;5055826;28;20439;-71
2023/02/16 11:23:36;;;;;;;7.97;5.47;;;27.00;19.60;;;;;;5055677;28;20532;-71
2023/02/16 11:26:05;;;;;;;10.97;6.17;;;27.20;18.40;;;;;;5055798;28;20502;-72
2023/02/16 11:28:35;;;;;;;10.50;7.17;;;27.40;18.40;;;;;;5055886;28;20919;-72
2023/02/16 11:31:19;;;;;;;8.40;6.07;;;27.20;18.20;;;;;;5055857;28;20468;-71
2023/02/16 11:33:57;;;;;;;9.43;6.10;;;27.30;18.10;;;;;;5056051;28;20460;-71
2023/02/16 11:36:30;;;;;;;9.70;6.03;;;26.90;18.30;;;;;;5055740;28;20567;-71
2023/02/16 11:39:00;;;;;;;9.17;5.97;;;26.40;18.10;;;;;;5055562;28;20477;-71
2023/02/16 11:41:32;;;;;;;10.33;6.67;;;26.20;19.60;;;;;;5055884;28;20475;-71
2023/02/16 11:44:00;;;;;;;10.60;7.33;;;26.40;19.20;;;;;;5055660;28;20420;-71
2023/02/16 11:46:38;;;;;;;9.47;6.43;;;26.70;18.80;;;;;;5055230;28;20437;-70
2023/02/16 11:49:30;;;;;;;12.93;7.57;;;27.10;18.70;;;;;;5055532;28;20832;-72
2023/02/16 11:51:57;;;;;;;10.30;6.33;;;27.50;18.60;;;;;;5055227;28;20433;-71
2023/02/16 11:54:24;;;;;;;12.30;8.13;;;27.80;18.10;;;;;;5055013;28;20472;-71
2023/02/16 11:57:05;;;;;;;12.63;7.10;;;28.10;17.50;;;;;;5055209;28;21041;-71
2023/02/16 11:59:36;;;;;;;11.50;7.10;;;28.30;17.40;;;;;;5055340;28;20967;-72
2023/02/16 12:02:45;;;;;;;9.37;6.50;;;28.40;17.10;;;;;;5054960;28;20464;-71
2023/02/16 12:05:37;;;;;;;12.30;6.73;;;28.60;17.10;;;;;;5055396;28;20436;-71
2023/02/16 12:08:27;;;;;;;10.43;7.00;;;28.60;17.30;;;;;;5054902;28;20472;-73
2023/02/16 12:11:07;;;;;;;11.63;8.07;;;28.60;16.40;;;;;;5055256;28;20511;-71
2023/02/16 12:13:43;;;;;;;11.23;7.33;;;28.60;16.60;;;;;;5055321;28;20441;-71
2023/02/16 12:16:23;;;;;;;11.40;7.23;;;28.50;16.70;;;;;;5054514;28;20567;-72
2023/02/16 12:19:03;;;;;;;11.43;6.40;;;28.60;16.40;;;;;;5055842;28;20515;-71
2023/02/16 12:21:44;;;;;;;10.60;6.87;;;28.60;15.70;;;;;;5064528;28;20440;-73
2023/02/16 12:24:31;;;;;;;10.93;6.33;;;28.50;16.30;;;;;;5051307;28;20623;-71
2023/02/16 12:27:01;;;;;;;9.50;5.97;;;28.50;16.20;;;;;;5054303;28;20460;-71
2023/02/16 12:29:45;;;;;;;11.87;6.87;;;28.50;15.60;;;;;;5061716;28;20476;-71
2023/02/16 12:32:24;;;;;;;9.10;6.03;;;28.50;15.80;;;;;;5073858;28;20436;-72
2023/02/16 12:35:06;;;;;;;8.47;6.13;;;28.50;15.70;;;;;;5064331;28;20504;-71
2023/02/16 12:37:44;;;;;;;11.00;5.87;;;28.50;16.00;;;;;;5054269;28;20830;-72
2023/02/16 12:40:21;;;;;;;10.10;5.90;;;28.60;15.60;;;;;;5057915;28;20516;-70
2023/02/16 12:43:03;;;;;;;9.20;6.13;;;28.50;15.70;;;;;;5051796;28;20437;-71
2023/02/16 12:45:35;;;;;;;9.90;5.90;;;28.60;15.60;;;;;;5068296;28;20439;-71
2023/02/16 12:48:11;;;;;;;7.63;5.50;;;28.60;15.40;;;;;;5033891;28;20918;-71
2023/02/16 12:50:43;;;;;;;8.20;5.30;;;28.60;15.90;;;;;;5058121;28;20433;-71
2023/02/16 12:53:22;;;;;;;13.10;6.27;;;28.60;15.10;;;;;;5052954;28;20846;-71
2023/02/16 12:55:54;;;;;;;13.80;7.20;;;28.50;15.10;;;;;;5073894;28;20450;-70
2023/02/16 12:58:25;;;;;;;9.80;7.07;;;28.40;15.80;;;;;;5073559;28;20484;-70
2023/02/16 13:00:58;;;;;;;14.97;6.90;;;28.40;15.30;;;;;;5069995;28;20491;-71
2023/02/16 13:03:34;;;;;;;9.63;5.33;;;28.30;15.50;;;;;;5072102;28;20527;-70
2023/02/16 13:09:06;;;;;;;6.63;4.90;;;28.10;15.30;;;;;;5040197;28;20531;-71
2023/02/16 13:11:38;;;;;;;6.70;3.73;;;28.00;14.80;;;;;;5052526;28;20807;-71
2023/02/16 13:14:13;;;;;;;6.27;4.57;;;27.90;14.90;;;;;;5052850;28;20885;-71
2023/02/16 13:16:46;;;;;;;6.87;4.10;;;27.70;14.40;;;;;;5052539;28;20480;-71
2023/02/16 13:19:14;;;;;;;9.20;4.87;;;27.70;14.60;;;;;;5052551;28;20626;-72
2023/02/16 13:22:19;;;;;;;9.40;5.20;;;27.60;14.80;;;;;;5052699;28;20985;-71
2023/02/16 13:24:57;;;;;;;7.00;4.83;;;27.50;15.00;;;;;;5053138;28;20516;-70
2023/02/16 13:27:37;;;;;;;6.80;4.67;;;27.30;14.40;;;;;;5043133;28;20548;-70
2023/02/16 13:30:32;;;;;;;6.50;4.20;;;27.20;14.00;;;;;;5051281;28;20787;-71
2023/02/16 13:33:24;;;;;;;12.83;6.13;;;26.90;14.40;;;;;;5045692;28;20807;-71
2023/02/16 13:36:13;;;;;;;9.27;5.90;;;26.70;14.90;;;;;;5052796;28;20532;-71
2023/02/16 13:39:12;;;;;;;8.93;7.00;;;26.40;15.10;;;;;;5052622;28;20440;-71
2023/02/16 13:42:05;;;;;;;5.53;3.77;;;26.20;14.80;;;;;;5049559;28;20502;-71
2023/02/16 13:44:38;;;;;;;7.70;4.27;;;26.00;14.50;;;;;;5052541;28;20457;-70
2023/02/16 13:47:11;;;;;;;7.40;5.83;;;25.80;14.70;;;;;;5052304;28;20429;-71
2023/02/16 13:49:42;;;;;;;10.07;7.93;;;25.60;14.90;;;;;;5052371;28;20527;-70
2023/02/16 13:52:11;;;;;;;8.20;5.40;;;25.40;15.10;;;;;;5052963;28;20527;-71
2023/02/16 13:54:42;;;;;;;6.93;3.97;;;25.20;15.10;;;;;;5051751;28;20962;-71
2023/02/16 13:57:17;;;;;;;5.87;3.67;;;24.90;15.20;;;;;;5052077;28;20534;-71
2023/02/16 13:59:59;;;;;;;6.40;4.10;;;24.50;15.10;;;;;;5052379;28;20757;-70
2023/02/16 14:02:53;;;;;;;5.20;3.37;;;24.20;15.50;;;;;;5051846;28;20472;-70